EWG2XM EDDH-EDDS
Flight info
| Callsign | EWG2XM |
|---|---|
| Flight time | 0h 55m |
| Altitude | 23000 |
| Route | IDEKO7G IDEKO N850 KRH T128 BADSO BADSO2A |
| Aircraft | A319/M-SDE3FGHIRWY/LB1 |
Departure
| Time | 2026-04-26 18:36 |
|---|---|
| Airport | Hamburg Helmut Schmidt Airport (EDDH) |
Arrival
| Time | 2026-04-26 19:31 |
|---|---|
| Airport | Stuttgart Airport (EDDS) |
| Time | Latitude | Longitude | Altitude | Speed | Heading |
|---|---|---|---|---|---|
| 2026-04-26 18:16 | 53.63217 | 9.99965 | 49 ft | 0 kts | 321° |
| 2026-04-26 18:29 | 53.63215 | 9.99968 | 48 ft | 3 kts | 320° |
| 2026-04-26 18:29 | 53.63196 | 9.99999 | 48 ft | 4 kts | 304° |
| 2026-04-26 18:29 | 53.63186 | 10.00037 | 44 ft | 4 kts | 259° |
| 2026-04-26 18:29 | 53.63190 | 10.00056 | 45 ft | 0 kts | 231° |
| 2026-04-26 18:31 | 53.63183 | 10.00040 | 45 ft | 4 kts | 231° |
| 2026-04-26 18:32 | 53.63159 | 9.99992 | 47 ft | 6 kts | 230° |
| 2026-04-26 18:32 | 53.63127 | 9.99929 | 48 ft | 8 kts | 228° |
| 2026-04-26 18:32 | 53.63074 | 9.99898 | 48 ft | 9 kts | 178° |
| 2026-04-26 18:32 | 53.63016 | 9.99940 | 48 ft | 10 kts | 152° |
| 2026-04-26 18:33 | 53.62955 | 9.99992 | 48 ft | 9 kts | 158° |
| 2026-04-26 18:33 | 53.62910 | 9.99960 | 46 ft | 8 kts | 238° |
| 2026-04-26 18:33 | 53.62882 | 9.99864 | 47 ft | 11 kts | 243° |
| 2026-04-26 18:33 | 53.62864 | 9.99760 | 45 ft | 8 kts | 284° |
| 2026-04-26 18:34 | 53.62898 | 9.99718 | 45 ft | 0 kts | 333° |
| 2026-04-26 18:35 | 53.62953 | 9.99670 | 45 ft | 35 kts | 333° |
| 2026-04-26 18:35 | 53.63428 | 9.99260 | 47 ft | 114 kts | 333° |
| 2026-04-26 18:35 | 53.64294 | 9.98511 | 272 ft | 151 kts | 332° |
| 2026-04-26 18:36 | 53.65249 | 9.97708 | 951 ft | 155 kts | 332° |
| 2026-04-26 18:36 | 53.66219 | 9.96895 | 1677 ft | 158 kts | 332° |
| 2026-04-26 18:36 | 53.67270 | 9.95993 | 2135 ft | 180 kts | 330° |
| 2026-04-26 18:36 | 53.68446 | 9.94969 | 2568 ft | 201 kts | 330° |
| 2026-04-26 18:37 | 53.69738 | 9.93853 | 3171 ft | 214 kts | 330° |
| 2026-04-26 18:37 | 53.70918 | 9.92341 | 4015 ft | 215 kts | 303° |
| 2026-04-26 18:37 | 53.71429 | 9.89994 | 4848 ft | 223 kts | 272° |
| 2026-04-26 18:37 | 53.71129 | 9.87348 | 5393 ft | 247 kts | 245° |
| 2026-04-26 18:38 | 53.69967 | 9.85117 | 6192 ft | 265 kts | 213° |
| 2026-04-26 18:38 | 53.68188 | 9.84083 | 7099 ft | 276 kts | 195° |
| 2026-04-26 18:38 | 53.66317 | 9.83180 | 8008 ft | 282 kts | 201° |
| 2026-04-26 18:38 | 53.64511 | 9.81848 | 8883 ft | 285 kts | 220° |
| 2026-04-26 18:39 | 53.63317 | 9.79254 | 9743 ft | 282 kts | 252° |
| 2026-04-26 18:39 | 53.62857 | 9.76047 | 10172 ft | 282 kts | 264° |
| 2026-04-26 18:39 | 53.62529 | 9.72787 | 10281 ft | 289 kts | 264° |
| 2026-04-26 18:39 | 53.62187 | 9.69240 | 10478 ft | 320 kts | 264° |
| 2026-04-26 18:40 | 53.61833 | 9.65441 | 11035 ft | 333 kts | 264° |
| 2026-04-26 18:40 | 53.61336 | 9.61629 | 11803 ft | 342 kts | 257° |
| 2026-04-26 18:40 | 53.60545 | 9.57812 | 12623 ft | 348 kts | 252° |
| 2026-04-26 18:40 | 53.59592 | 9.54038 | 13452 ft | 352 kts | 249° |
| 2026-04-26 18:41 | 53.58571 | 9.50269 | 14251 ft | 356 kts | 249° |
| 2026-04-26 18:41 | 53.57533 | 9.46448 | 14981 ft | 359 kts | 249° |
| 2026-04-26 18:41 | 53.56514 | 9.42596 | 15730 ft | 362 kts | 250° |
| 2026-04-26 18:41 | 53.55511 | 9.38684 | 16475 ft | 364 kts | 250° |
| 2026-04-26 18:42 | 53.54524 | 9.34742 | 17213 ft | 367 kts | 251° |
| 2026-04-26 18:42 | 53.53546 | 9.30823 | 17919 ft | 371 kts | 249° |
| 2026-04-26 18:42 | 53.52124 | 9.27142 | 18619 ft | 382 kts | 231° |
| 2026-04-26 18:42 | 53.50004 | 9.24368 | 19238 ft | 393 kts | 211° |
| 2026-04-26 18:43 | 53.47371 | 9.22936 | 19873 ft | 405 kts | 190° |
| 2026-04-26 18:43 | 53.44520 | 9.23125 | 20204 ft | 415 kts | 170° |
| 2026-04-26 18:43 | 53.41735 | 9.24422 | 20295 ft | 415 kts | 166° |
| 2026-04-26 18:43 | 53.38999 | 9.25792 | 20309 ft | 415 kts | 165° |
| 2026-04-26 18:44 | 53.36233 | 9.27191 | 20302 ft | 414 kts | 165° |
| 2026-04-26 18:44 | 53.33466 | 9.28578 | 20318 ft | 414 kts | 166° |
| 2026-04-26 18:44 | 53.30678 | 9.29953 | 20719 ft | 419 kts | 166° |
| 2026-04-26 18:44 | 53.27875 | 9.31319 | 21378 ft | 421 kts | 166° |
| 2026-04-26 18:45 | 53.25045 | 9.32689 | 21984 ft | 424 kts | 166° |
| 2026-04-26 18:45 | 53.22184 | 9.33962 | 22545 ft | 426 kts | 173° |
| 2026-04-26 18:45 | 53.19278 | 9.34185 | 23070 ft | 423 kts | 187° |
| 2026-04-26 18:45 | 53.16335 | 9.33809 | 23271 ft | 424 kts | 188° |
| 2026-04-26 18:46 | 53.13342 | 9.33384 | 23305 ft | 435 kts | 188° |
| 2026-04-26 18:46 | 53.10309 | 9.32932 | 23304 ft | 438 kts | 188° |
| 2026-04-26 18:46 | 53.07271 | 9.32477 | 23304 ft | 438 kts | 188° |
| 2026-04-26 18:46 | 53.04234 | 9.32032 | 23303 ft | 438 kts | 188° |
| 2026-04-26 18:47 | 53.01191 | 9.31596 | 23305 ft | 439 kts | 188° |
| 2026-04-26 18:47 | 52.98146 | 9.31171 | 23304 ft | 439 kts | 188° |
| 2026-04-26 18:47 | 52.95102 | 9.30755 | 23304 ft | 439 kts | 188° |
| 2026-04-26 18:47 | 52.92094 | 9.30343 | 23304 ft | 439 kts | 188° |
| 2026-04-26 18:48 | 52.89045 | 9.29919 | 23301 ft | 439 kts | 188° |
| 2026-04-26 18:48 | 52.86002 | 9.29491 | 23284 ft | 439 kts | 188° |
| 2026-04-26 18:48 | 52.82956 | 9.29063 | 23290 ft | 438 kts | 188° |
| 2026-04-26 18:48 | 52.79915 | 9.28636 | 23293 ft | 438 kts | 188° |
| 2026-04-26 18:49 | 52.76871 | 9.28211 | 23294 ft | 438 kts | 188° |
| 2026-04-26 18:49 | 52.73831 | 9.27784 | 23295 ft | 438 kts | 188° |
| 2026-04-26 18:49 | 52.70795 | 9.27359 | 23299 ft | 438 kts | 188° |
| 2026-04-26 18:49 | 52.67755 | 9.26935 | 23297 ft | 438 kts | 188° |
| 2026-04-26 18:50 | 52.64756 | 9.26521 | 23298 ft | 438 kts | 188° |
| 2026-04-26 18:50 | 52.61720 | 9.26103 | 23286 ft | 438 kts | 188° |
| 2026-04-26 18:50 | 52.58682 | 9.25680 | 23293 ft | 438 kts | 188° |
| 2026-04-26 18:50 | 52.55645 | 9.25258 | 23297 ft | 438 kts | 188° |
| 2026-04-26 18:51 | 52.52610 | 9.24838 | 23305 ft | 437 kts | 188° |
| 2026-04-26 18:51 | 52.49580 | 9.24420 | 23305 ft | 437 kts | 188° |
| 2026-04-26 18:51 | 52.46557 | 9.24006 | 23306 ft | 437 kts | 188° |
| 2026-04-26 18:51 | 52.43512 | 9.23592 | 23306 ft | 437 kts | 188° |
| 2026-04-26 18:52 | 52.40473 | 9.23179 | 23301 ft | 437 kts | 188° |
| 2026-04-26 18:52 | 52.38462 | 9.22907 | 23289 ft | 437 kts | 188° |
| 2026-04-26 18:52 | 52.34435 | 9.22389 | 23292 ft | 438 kts | 187° |
| 2026-04-26 18:52 | 52.31394 | 9.22023 | 23294 ft | 438 kts | 187° |
| 2026-04-26 18:53 | 52.28347 | 9.21668 | 23297 ft | 438 kts | 187° |
| 2026-04-26 18:53 | 52.25308 | 9.21318 | 23295 ft | 438 kts | 187° |
| 2026-04-26 18:53 | 52.22261 | 9.20962 | 23301 ft | 438 kts | 187° |
| 2026-04-26 18:53 | 52.19212 | 9.20603 | 23303 ft | 438 kts | 187° |
| 2026-04-26 18:54 | 52.16165 | 9.20242 | 23280 ft | 438 kts | 187° |
| 2026-04-26 18:54 | 52.13117 | 9.19876 | 23285 ft | 438 kts | 187° |
| 2026-04-26 18:54 | 52.10111 | 9.19513 | 23294 ft | 438 kts | 187° |
| 2026-04-26 18:54 | 52.07068 | 9.19148 | 23293 ft | 438 kts | 187° |
| 2026-04-26 18:55 | 52.04015 | 9.18784 | 23299 ft | 439 kts | 187° |
| 2026-04-26 18:55 | 52.00967 | 9.18420 | 23294 ft | 439 kts | 187° |
| 2026-04-26 18:55 | 51.97919 | 9.18054 | 23300 ft | 439 kts | 187° |
| 2026-04-26 18:55 | 51.94873 | 9.17691 | 23305 ft | 439 kts | 187° |
| 2026-04-26 18:56 | 51.92854 | 9.17454 | 23307 ft | 439 kts | 187° |
| 2026-04-26 18:56 | 51.89807 | 9.17098 | 23293 ft | 439 kts | 187° |
| 2026-04-26 18:56 | 51.85765 | 9.16622 | 23294 ft | 439 kts | 187° |
| 2026-04-26 18:56 | 51.83702 | 9.16377 | 23296 ft | 439 kts | 187° |
| 2026-04-26 18:57 | 51.80692 | 9.16020 | 23298 ft | 439 kts | 187° |
| 2026-04-26 18:57 | 51.78630 | 9.15777 | 23298 ft | 439 kts | 187° |
| 2026-04-26 18:57 | 51.74585 | 9.15305 | 23298 ft | 439 kts | 187° |
| 2026-04-26 18:57 | 51.71535 | 9.14952 | 23298 ft | 439 kts | 187° |
| 2026-04-26 18:58 | 51.68484 | 9.14598 | 23283 ft | 439 kts | 187° |
| 2026-04-26 18:58 | 51.65431 | 9.14240 | 23281 ft | 439 kts | 187° |
| 2026-04-26 18:58 | 51.62380 | 9.13879 | 23279 ft | 439 kts | 187° |
| 2026-04-26 18:58 | 51.59365 | 9.13522 | 23279 ft | 440 kts | 187° |
| 2026-04-26 18:59 | 51.56308 | 9.13161 | 23280 ft | 440 kts | 187° |
| 2026-04-26 18:59 | 51.53258 | 9.12803 | 23279 ft | 440 kts | 187° |
| 2026-04-26 18:59 | 51.50195 | 9.12447 | 23282 ft | 440 kts | 187° |
| 2026-04-26 18:59 | 51.47136 | 9.12090 | 23283 ft | 440 kts | 187° |
| 2026-04-26 19:00 | 51.44075 | 9.11734 | 23274 ft | 440 kts | 187° |
| 2026-04-26 19:00 | 51.41016 | 9.11382 | 23276 ft | 440 kts | 187° |
| 2026-04-26 19:00 | 51.37955 | 9.11035 | 23278 ft | 441 kts | 187° |
| 2026-04-26 19:00 | 51.34893 | 9.10685 | 23279 ft | 441 kts | 187° |
| 2026-04-26 19:01 | 51.31865 | 9.10336 | 23275 ft | 441 kts | 187° |
| 2026-04-26 19:01 | 51.28800 | 9.09984 | 23275 ft | 441 kts | 187° |
| 2026-04-26 19:01 | 51.25738 | 9.09632 | 23273 ft | 441 kts | 187° |
| 2026-04-26 19:01 | 51.22673 | 9.09278 | 23273 ft | 441 kts | 187° |
| 2026-04-26 19:02 | 51.19606 | 9.08927 | 23256 ft | 441 kts | 187° |
| 2026-04-26 19:02 | 51.16543 | 9.08576 | 23258 ft | 441 kts | 187° |
| 2026-04-26 19:02 | 51.13475 | 9.08223 | 23260 ft | 441 kts | 187° |
| 2026-04-26 19:02 | 51.11446 | 9.07990 | 23261 ft | 441 kts | 187° |
| 2026-04-26 19:03 | 51.07388 | 9.07531 | 23263 ft | 441 kts | 187° |
| 2026-04-26 19:03 | 51.04321 | 9.07183 | 23265 ft | 441 kts | 187° |
| 2026-04-26 19:03 | 51.01248 | 9.06833 | 23267 ft | 441 kts | 187° |
| 2026-04-26 19:03 | 50.98183 | 9.06484 | 23264 ft | 441 kts | 187° |
| 2026-04-26 19:04 | 50.95110 | 9.06129 | 23261 ft | 441 kts | 187° |
| 2026-04-26 19:04 | 50.92045 | 9.05776 | 23263 ft | 441 kts | 186° |
| 2026-04-26 19:04 | 50.88974 | 9.05426 | 23264 ft | 441 kts | 186° |
| 2026-04-26 19:04 | 50.85977 | 9.05090 | 23266 ft | 441 kts | 186° |
| 2026-04-26 19:05 | 50.79810 | 9.04397 | 23269 ft | 441 kts | 186° |
| 2026-04-26 19:05 | 50.76747 | 9.04050 | 23271 ft | 442 kts | 186° |
| 2026-04-26 19:05 | 50.73673 | 9.03697 | 23271 ft | 442 kts | 186° |
| 2026-04-26 19:06 | 50.70606 | 9.03347 | 23264 ft | 442 kts | 186° |
| 2026-04-26 19:06 | 50.67571 | 9.03008 | 23267 ft | 442 kts | 186° |
| 2026-04-26 19:06 | 50.64498 | 9.02665 | 23269 ft | 442 kts | 186° |
| 2026-04-26 19:06 | 50.61424 | 9.02322 | 23271 ft | 442 kts | 186° |
| 2026-04-26 19:07 | 50.58350 | 9.01979 | 23268 ft | 442 kts | 186° |
| 2026-04-26 19:07 | 50.55284 | 9.01643 | 23268 ft | 442 kts | 186° |
| 2026-04-26 19:07 | 50.52210 | 9.01308 | 23259 ft | 442 kts | 186° |
| 2026-04-26 19:07 | 50.49146 | 9.00970 | 23260 ft | 442 kts | 186° |
| 2026-04-26 19:08 | 50.46114 | 9.00630 | 23259 ft | 441 kts | 186° |
| 2026-04-26 19:08 | 50.43045 | 9.00286 | 23258 ft | 441 kts | 186° |
| 2026-04-26 19:08 | 50.39975 | 8.99944 | 23259 ft | 442 kts | 186° |
| 2026-04-26 19:08 | 50.36905 | 8.99600 | 23262 ft | 442 kts | 186° |
| 2026-04-26 19:09 | 50.33836 | 8.99258 | 23259 ft | 442 kts | 186° |
| 2026-04-26 19:09 | 50.30764 | 8.98916 | 23258 ft | 442 kts | 186° |
| 2026-04-26 19:09 | 50.27698 | 8.98579 | 23244 ft | 442 kts | 186° |
| 2026-04-26 19:09 | 50.24662 | 8.98246 | 23244 ft | 442 kts | 186° |
| 2026-04-26 19:10 | 50.21593 | 8.97907 | 23243 ft | 442 kts | 186° |
| 2026-04-26 19:10 | 50.18521 | 8.97567 | 23244 ft | 442 kts | 186° |
| 2026-04-26 19:10 | 50.15451 | 8.97232 | 23245 ft | 442 kts | 186° |
| 2026-04-26 19:10 | 50.12375 | 8.96902 | 23246 ft | 442 kts | 186° |
| 2026-04-26 19:11 | 50.09305 | 8.96573 | 23246 ft | 442 kts | 186° |
| 2026-04-26 19:11 | 50.06278 | 8.96243 | 23237 ft | 442 kts | 186° |
| 2026-04-26 19:11 | 50.03210 | 8.95905 | 23235 ft | 441 kts | 186° |
| 2026-04-26 19:11 | 50.00145 | 8.95564 | 23234 ft | 442 kts | 186° |
| 2026-04-26 19:12 | 49.97079 | 8.95228 | 23235 ft | 442 kts | 186° |
| 2026-04-26 19:12 | 49.94009 | 8.94895 | 23235 ft | 442 kts | 186° |
| 2026-04-26 19:12 | 49.90929 | 8.94562 | 23238 ft | 442 kts | 186° |
| 2026-04-26 19:12 | 49.87852 | 8.94227 | 23237 ft | 442 kts | 186° |
| 2026-04-26 19:13 | 49.84812 | 8.93893 | 23226 ft | 443 kts | 186° |
| 2026-04-26 19:13 | 49.81736 | 8.93557 | 23227 ft | 443 kts | 186° |
| 2026-04-26 19:13 | 49.78654 | 8.93221 | 23225 ft | 444 kts | 186° |
| 2026-04-26 19:13 | 49.75568 | 8.92888 | 23227 ft | 444 kts | 186° |
| 2026-04-26 19:14 | 49.72484 | 8.92561 | 23232 ft | 444 kts | 186° |
| 2026-04-26 19:14 | 49.69397 | 8.92237 | 23227 ft | 445 kts | 186° |
| 2026-04-26 19:14 | 49.66301 | 8.91909 | 23229 ft | 445 kts | 186° |
| 2026-04-26 19:14 | 49.64254 | 8.91690 | 23230 ft | 445 kts | 186° |
| 2026-04-26 19:15 | 49.60158 | 8.91249 | 22904 ft | 444 kts | 186° |
| 2026-04-26 19:15 | 49.57086 | 8.90922 | 22306 ft | 439 kts | 186° |
| 2026-04-26 19:15 | 49.54056 | 8.90598 | 21729 ft | 434 kts | 186° |
| 2026-04-26 19:15 | 49.51052 | 8.90275 | 21161 ft | 429 kts | 186° |
| 2026-04-26 19:16 | 49.48083 | 8.89958 | 20604 ft | 425 kts | 185° |
| 2026-04-26 19:16 | 49.45146 | 8.89645 | 20058 ft | 420 kts | 185° |
| 2026-04-26 19:16 | 49.42241 | 8.89335 | 19525 ft | 416 kts | 185° |
| 2026-04-26 19:16 | 49.39396 | 8.89031 | 19003 ft | 413 kts | 185° |
| 2026-04-26 19:17 | 49.36534 | 8.88726 | 18478 ft | 410 kts | 185° |
| 2026-04-26 19:17 | 49.33698 | 8.88426 | 17885 ft | 406 kts | 185° |
| 2026-04-26 19:17 | 49.30884 | 8.88126 | 17302 ft | 403 kts | 185° |
| 2026-04-26 19:17 | 49.28093 | 8.87828 | 16731 ft | 400 kts | 185° |
| 2026-04-26 19:18 | 49.25327 | 8.87531 | 16170 ft | 396 kts | 185° |
| 2026-04-26 19:18 | 49.22627 | 8.87243 | 15627 ft | 393 kts | 185° |
| 2026-04-26 19:18 | 49.19908 | 8.86958 | 15088 ft | 389 kts | 185° |
| 2026-04-26 19:18 | 49.17220 | 8.86680 | 14545 ft | 385 kts | 185° |
| 2026-04-26 19:19 | 49.14561 | 8.86406 | 14023 ft | 380 kts | 185° |
| 2026-04-26 19:19 | 49.11931 | 8.86134 | 13448 ft | 376 kts | 185° |
| 2026-04-26 19:19 | 49.09326 | 8.85862 | 13215 ft | 374 kts | 185° |
| 2026-04-26 19:19 | 49.06752 | 8.85589 | 13222 ft | 374 kts | 185° |
| 2026-04-26 19:20 | 49.04122 | 8.85311 | 13223 ft | 374 kts | 185° |
| 2026-04-26 19:20 | 49.02401 | 8.85130 | 13072 ft | 371 kts | 185° |
| 2026-04-26 19:20 | 48.99005 | 8.84774 | 12231 ft | 367 kts | 185° |
| 2026-04-26 19:20 | 48.96459 | 8.84506 | 11607 ft | 364 kts | 185° |
| 2026-04-26 19:21 | 48.93935 | 8.84242 | 11032 ft | 360 kts | 185° |
| 2026-04-26 19:21 | 48.91519 | 8.83993 | 10886 ft | 334 kts | 185° |
| 2026-04-26 19:21 | 48.89286 | 8.83765 | 10762 ft | 310 kts | 185° |
| 2026-04-26 19:21 | 48.87181 | 8.83548 | 10408 ft | 298 kts | 186° |
| 2026-04-26 19:22 | 48.85132 | 8.83333 | 9943 ft | 290 kts | 186° |
| 2026-04-26 19:22 | 48.83185 | 8.83130 | 9814 ft | 271 kts | 186° |
| 2026-04-26 19:22 | 48.81373 | 8.82940 | 9508 ft | 260 kts | 186° |
| 2026-04-26 19:22 | 48.79582 | 8.82749 | 9037 ft | 256 kts | 186° |
| 2026-04-26 19:23 | 48.77815 | 8.82561 | 8542 ft | 253 kts | 186° |
| 2026-04-26 19:23 | 48.76064 | 8.82372 | 8021 ft | 251 kts | 186° |
| 2026-04-26 19:23 | 48.74322 | 8.82174 | 7512 ft | 249 kts | 186° |
| 2026-04-26 19:23 | 48.72601 | 8.81962 | 7012 ft | 247 kts | 186° |
| 2026-04-26 19:24 | 48.70892 | 8.81760 | 6483 ft | 245 kts | 180° |
| 2026-04-26 19:24 | 48.69289 | 8.82385 | 5956 ft | 241 kts | 150° |
| 2026-04-26 19:24 | 48.66540 | 8.85100 | 5264 ft | 223 kts | 144° |
| 2026-04-26 19:25 | 48.65320 | 8.86417 | 5139 ft | 207 kts | 139° |
| 2026-04-26 19:25 | 48.64719 | 8.87471 | 5069 ft | 194 kts | 116° |
| 2026-04-26 19:25 | 48.64133 | 8.89914 | 4824 ft | 179 kts | 104° |
| 2026-04-26 19:25 | 48.63800 | 8.91719 | 4500 ft | 177 kts | 104° |
| 2026-04-26 19:26 | 48.63582 | 8.93516 | 4155 ft | 175 kts | 86° |
| 2026-04-26 19:26 | 48.63844 | 8.95281 | 4027 ft | 173 kts | 73° |
| 2026-04-26 19:26 | 48.64179 | 8.97037 | 4020 ft | 174 kts | 73° |
| 2026-04-26 19:26 | 48.64515 | 8.98795 | 4011 ft | 174 kts | 73° |
| 2026-04-26 19:27 | 48.64853 | 9.00558 | 3899 ft | 174 kts | 73° |
| 2026-04-26 19:27 | 48.65189 | 9.02308 | 3719 ft | 172 kts | 73° |
| 2026-04-26 19:27 | 48.65521 | 9.04038 | 3505 ft | 170 kts | 73° |
| 2026-04-26 19:27 | 48.65846 | 9.05735 | 3273 ft | 169 kts | 73° |
| 2026-04-26 19:28 | 48.66173 | 9.07443 | 3046 ft | 169 kts | 73° |
| 2026-04-26 19:28 | 48.66496 | 9.09127 | 2824 ft | 160 kts | 72° |
| 2026-04-26 19:28 | 48.66784 | 9.10642 | 2597 ft | 141 kts | 72° |
| 2026-04-26 19:28 | 48.67047 | 9.12017 | 2421 ft | 133 kts | 72° |
| 2026-04-26 19:29 | 48.67301 | 9.13345 | 2252 ft | 130 kts | 71° |
| 2026-04-26 19:29 | 48.67552 | 9.14658 | 2072 ft | 129 kts | 71° |
| 2026-04-26 19:29 | 48.67803 | 9.15966 | 1899 ft | 129 kts | 70° |
| 2026-04-26 19:29 | 48.68050 | 9.17247 | 1736 ft | 129 kts | 71° |
| 2026-04-26 19:30 | 48.68299 | 9.18546 | 1575 ft | 129 kts | 71° |
| 2026-04-26 19:30 | 48.68542 | 9.19850 | 1406 ft | 128 kts | 72° |
| 2026-04-26 19:30 | 48.68786 | 9.21135 | 1293 ft | 120 kts | 72° |
| 2026-04-26 19:30 | 48.68925 | 9.21862 | 1287 ft | 94 kts | 74° |
| 2026-04-26 19:31 | 48.69083 | 9.22686 | 1287 ft | 39 kts | 73° |
| 2026-04-26 19:31 | 48.69185 | 9.22971 | 1285 ft | 18 kts | 50° |
| 2026-04-26 19:31 | 48.69272 | 9.23106 | 1288 ft | 18 kts | 44° |
| 2026-04-26 19:31 | 48.69352 | 9.23152 | 1285 ft | 12 kts | 352° |
| 2026-04-26 19:32 | 48.69407 | 9.23060 | 1285 ft | 13 kts | 278° |
| 2026-04-26 19:32 | 48.69386 | 9.22924 | 1287 ft | 14 kts | 254° |
| 2026-04-26 19:32 | 48.69358 | 9.22777 | 1288 ft | 15 kts | 253° |
| 2026-04-26 19:32 | 48.69328 | 9.22623 | 1287 ft | 16 kts | 254° |
| 2026-04-26 19:33 | 48.69297 | 9.22455 | 1285 ft | 17 kts | 254° |
| 2026-04-26 19:33 | 48.69263 | 9.22279 | 1290 ft | 18 kts | 254° |
| 2026-04-26 19:33 | 48.69228 | 9.22093 | 1285 ft | 19 kts | 254° |
| 2026-04-26 19:33 | 48.69191 | 9.21898 | 1288 ft | 20 kts | 253° |
| 2026-04-26 19:34 | 48.69152 | 9.21693 | 1285 ft | 21 kts | 253° |
| 2026-04-26 19:34 | 48.69111 | 9.21479 | 1285 ft | 22 kts | 253° |
| 2026-04-26 19:34 | 48.69070 | 9.21260 | 1287 ft | 22 kts | 253° |
| 2026-04-26 19:34 | 48.69025 | 9.21029 | 1285 ft | 23 kts | 255° |
| 2026-04-26 19:35 | 48.68986 | 9.20820 | 1287 ft | 20 kts | 254° |
| 2026-04-26 19:35 | 48.68947 | 9.20614 | 1287 ft | 21 kts | 254° |
| 2026-04-26 19:35 | 48.68906 | 9.20397 | 1285 ft | 22 kts | 253° |
| 2026-04-26 19:35 | 48.68864 | 9.20181 | 1285 ft | 20 kts | 253° |
| 2026-04-26 19:36 | 48.68834 | 9.20020 | 1285 ft | 13 kts | 254° |
| 2026-04-26 19:36 | 48.68826 | 9.19978 | 1287 ft | 12 kts | 253° |
| 2026-04-26 19:36 | 48.68856 | 9.19881 | 1287 ft | 6 kts | 345° |
| 2026-04-26 19:36 | 48.68889 | 9.19838 | 1287 ft | 7 kts | 282° |
| 2026-04-26 19:37 | 48.68877 | 9.19761 | 1285 ft | 8 kts | 253° |
| 2026-04-26 19:37 | 48.68859 | 9.19666 | 1289 ft | 10 kts | 253° |
| 2026-04-26 19:37 | 48.68838 | 9.19560 | 1287 ft | 11 kts | 253° |
| 2026-04-26 19:37 | 48.68824 | 9.19484 | 1288 ft | 5 kts | 254° |
| 2026-04-26 19:38 | 48.68842 | 9.19450 | 1287 ft | 5 kts | 344° |
| 2026-04-26 19:38 | 48.68874 | 9.19439 | 1285 ft | 3 kts | 344° |
| 2026-04-26 19:38 | 48.68883 | 9.19434 | 1288 ft | 1 kts | 344° |
| 2026-04-26 19:38 | 48.68892 | 9.19431 | 1287 ft | 1 kts | 344° |
| 2026-04-26 19:39 | 48.68896 | 9.19429 | 1285 ft | 1 kts | 344° |